Terminal Aerodrome Forecast
Issued by NWS Grand Rapids, MI

Home | Current Version | Previous Version | Text Only | Print | Product List | Glossary On
Versions: 1 2 3 4 5 6 7 8 9 10 11 12 13 14 15 16 17 18 19 20
000
FTUS43 KGRR 300540
TAFGRR
TAF
KGRR 300540Z 3006/3106 06013KT P6SM -SHRA OVC040
     FM301100 07015KT 4SM RA BR OVC015
     FM301300 08015G25KT 1 1/2SM RA BR OVC010
     FM302100 08015G21KT 1 1/2SM -RA BR VCTS OVC004CB
     FM310200 06012KT 1 1/2SM -RA BR OVC007=

USA.gov is the U.S. government's official web portal to all federal, state and local government web resources and services.